createdAt,value
2023-04-16T00:01:27.186Z,15.18
2023-04-16T00:03:56.127Z,17.95
2023-04-16T00:06:24.915Z,16.80
2023-04-16T00:08:54.571Z,11.82
2023-04-16T00:11:23.269Z,15.77
2023-04-16T00:13:51.569Z,12.65
2023-04-16T00:16:19.884Z,13.52
2023-04-16T00:18:48.223Z,9.63
2023-04-16T00:21:16.632Z,19.58
2023-04-16T00:23:44.962Z,16.92
2023-04-16T00:26:14.678Z,19.13
2023-04-16T00:28:45.446Z,13.40
2023-04-16T00:31:13.928Z,16.50
2023-04-16T00:33:42.418Z,14.98
2023-04-16T00:36:11.146Z,15.38
2023-04-16T00:38:39.463Z,17.80
2023-04-16T00:41:07.821Z,19.13
2023-04-16T00:43:37.572Z,16.33
2023-04-16T00:46:07.812Z,17.70
2023-04-16T00:48:37.229Z,15.85
2023-04-16T00:51:07.736Z,15.63
2023-04-16T00:53:36.975Z,15.52
2023-04-16T00:56:08.342Z,19.42
2023-04-16T00:58:38.656Z,11.93
2023-04-16T01:01:07.387Z,17.40
2023-04-16T01:03:41.188Z,15.05
2023-04-16T01:06:10.055Z,11.82
2023-04-16T01:08:38.408Z,13.88
2023-04-16T01:11:07.629Z,15.13
2023-04-16T01:13:39.303Z,15.43
2023-04-16T01:16:08.748Z,14.25
2023-04-16T01:18:37.655Z,13.43
2023-04-16T01:21:07.844Z,13.00
2023-04-16T01:23:36.489Z,13.00
2023-04-16T01:26:05.211Z,14.82
2023-04-16T01:28:33.622Z,13.05
2023-04-16T01:31:01.992Z,14.25
2023-04-16T01:33:40.451Z,14.52
2023-04-16T01:36:10.510Z,18.90
2023-04-16T01:38:38.825Z,13.38
2023-04-16T01:41:07.135Z,16.95
2023-04-16T01:43:38.972Z,14.73
2023-04-16T01:46:16.622Z,13.90
2023-04-16T01:48:45.050Z,13.52
2023-04-16T01:51:14.679Z,16.35
2023-04-16T01:53:42.972Z,11.02
2023-04-16T01:56:11.266Z,14.00
2023-04-16T01:58:39.805Z,17.73
2023-04-16T02:01:08.128Z,17.30
2023-04-16T02:03:37.150Z,14.48
2023-04-16T02:06:06.109Z,19.45
2023-04-16T02:08:35.952Z,17.48
2023-04-16T02:11:04.311Z,17.17
2023-04-16T02:13:32.649Z,15.05
2023-04-16T02:16:00.990Z,13.40
2023-04-16T02:18:42.804Z,15.65
2023-04-16T02:21:11.742Z,13.05
2023-04-16T02:23:41.779Z,20.60
2023-04-16T02:26:10.693Z,15.90
2023-04-16T02:28:39.684Z,15.73
2023-04-16T02:31:11.059Z,17.13
2023-04-16T02:33:44.452Z,21.60
2023-04-16T02:36:13.186Z,18.45
2023-04-16T02:38:42.854Z,15.02
2023-04-16T02:41:11.415Z,15.07
2023-04-16T02:43:39.812Z,19.98
2023-04-16T02:46:08.237Z,14.30
2023-04-16T02:48:36.731Z,17.70
2023-04-16T02:51:05.382Z,15.13
2023-04-16T02:53:33.658Z,15.73
2023-04-16T02:56:03.532Z,13.90
2023-04-16T02:58:31.939Z,15.32
2023-04-16T03:01:00.520Z,14.02
2023-04-16T03:03:28.956Z,13.07
2023-04-16T03:05:57.301Z,17.92
2023-04-16T03:08:25.647Z,14.82
2023-04-16T03:10:53.930Z,17.70
2023-04-16T03:13:23.639Z,11.40
2023-04-16T03:15:51.981Z,16.65
2023-04-16T03:18:20.369Z,13.90
2023-04-16T03:20:53.393Z,16.80
2023-04-16T03:23:21.837Z,15.82
2023-04-16T03:25:50.110Z,21.00
2023-04-16T03:28:19.975Z,17.42
2023-04-16T03:30:53.657Z,20.65
2023-04-16T03:33:22.785Z,19.77
2023-04-16T03:35:59.202Z,18.02
2023-04-16T03:38:30.956Z,16.38
2023-04-16T03:41:01.041Z,19.33
2023-04-16T03:43:32.216Z,15.98
2023-04-16T03:46:02.015Z,15.73
2023-04-16T03:48:30.671Z,18.77
2023-04-16T03:50:59.993Z,15.30
2023-04-16T03:53:28.556Z,15.20
2023-04-16T03:55:56.834Z,14.18
2023-04-16T03:58:25.557Z,15.90
2023-04-16T04:00:55.297Z,19.40
2023-04-16T04:03:26.268Z,22.27
2023-04-16T04:05:56.118Z,15.57
2023-04-16T04:08:30.792Z,18.30
2023-04-16T04:10:59.240Z,22.67
2023-04-16T04:13:28.234Z,17.67
2023-04-16T04:15:56.572Z,16.48
2023-04-16T04:18:26.755Z,24.52
2023-04-16T04:20:55.086Z,17.00
2023-04-16T04:23:27.365Z,24.38
2023-04-16T04:25:55.757Z,20.30
2023-04-16T04:28:24.168Z,16.02
2023-04-16T04:30:52.549Z,14.68
2023-04-16T04:33:21.222Z,22.17
2023-04-16T04:35:51.283Z,21.17
2023-04-16T04:38:21.212Z,16.13
2023-04-16T04:40:51.038Z,20.33
2023-04-16T04:43:20.735Z,22.30
2023-04-16T04:45:49.531Z,21.17
2023-04-16T04:48:18.818Z,27.97
2023-04-16T04:50:49.919Z,16.97
2023-04-16T04:53:18.263Z,20.73
2023-04-16T04:55:46.710Z,29.13
2023-04-16T04:58:15.868Z,20.70
2023-04-16T05:00:44.955Z,24.70
2023-04-16T05:03:13.862Z,24.63
2023-04-16T05:05:42.443Z,18.38
2023-04-16T05:08:12.084Z,22.35
2023-04-16T05:10:40.404Z,20.05
2023-04-16T05:13:08.642Z,17.00
2023-04-16T05:15:36.923Z,19.83
2023-04-16T05:18:05.672Z,18.05
2023-04-16T05:20:34.188Z,16.38
2023-04-16T05:23:02.458Z,24.40
2023-04-16T05:25:32.143Z,15.05
2023-04-16T05:28:00.468Z,13.30
2023-04-16T05:30:28.741Z,16.92
2023-04-16T05:32:57.055Z,13.10
2023-04-16T05:35:25.390Z,18.90
2023-04-16T05:37:53.717Z,17.55
2023-04-16T05:40:22.189Z,13.95
2023-04-16T05:42:51.835Z,22.27
2023-04-16T05:45:20.294Z,15.90
2023-04-16T05:47:48.687Z,14.55
2023-04-16T05:50:17.202Z,19.08
2023-04-16T05:52:45.822Z,24.08
2023-04-16T05:55:14.087Z,15.52
2023-04-16T05:57:42.410Z,15.20
2023-04-16T06:00:13.108Z,21.90
2023-04-16T06:05:10.627Z,18.75
2023-04-16T06:07:39.130Z,13.23
2023-04-16T06:10:08.820Z,18.55
2023-04-16T06:12:37.624Z,16.30
2023-04-16T06:15:07.504Z,15.98
2023-04-16T06:17:37.288Z,17.35
2023-04-16T06:20:07.190Z,20.83
2023-04-16T06:22:35.852Z,20.73
2023-04-16T06:25:04.431Z,18.40
2023-04-16T06:27:32.937Z,18.13
2023-04-16T06:30:01.207Z,15.52
2023-04-16T06:32:29.642Z,15.48
2023-04-16T06:34:59.468Z,21.85
2023-04-16T06:37:27.795Z,18.80
2023-04-16T06:39:56.073Z,19.90
2023-04-16T06:42:24.908Z,20.33
2023-04-16T06:44:53.320Z,16.27
2023-04-16T06:47:21.736Z,19.95
2023-04-16T06:49:50.045Z,14.60
2023-04-16T06:52:19.802Z,17.38
2023-04-16T06:54:48.950Z,16.27
2023-04-16T06:57:17.305Z,17.45
2023-04-16T06:59:45.588Z,19.15
2023-04-16T07:02:14.086Z,11.38
2023-04-16T07:04:42.449Z,17.00
2023-04-16T07:07:10.818Z,15.23
2023-04-16T07:09:41.234Z,15.30
2023-04-16T07:12:09.624Z,15.07
2023-04-16T07:14:37.877Z,16.88
2023-04-16T07:17:06.228Z,19.05
2023-04-16T07:19:35.216Z,9.80
2023-04-16T07:22:04.083Z,16.23
2023-04-16T07:24:32.608Z,14.73
2023-04-16T07:27:02.229Z,17.95
2023-04-16T07:29:30.578Z,16.15
2023-04-16T07:31:59.109Z,14.95
2023-04-16T07:34:27.558Z,12.30
2023-04-16T07:36:55.784Z,13.27
2023-04-16T07:39:24.155Z,17.05
2023-04-16T07:41:52.572Z,16.80
2023-04-16T07:44:22.498Z,17.35
2023-04-16T07:46:51.130Z,18.05
2023-04-16T07:49:19.557Z,11.45
2023-04-16T07:51:49.460Z,15.02
2023-04-16T07:54:17.898Z,11.80
2023-04-16T07:56:46.262Z,13.85
2023-04-16T07:59:22.968Z,13.85
2023-04-16T08:01:55.024Z,15.95
2023-04-16T08:04:26.186Z,12.32
2023-04-16T08:06:56.605Z,11.65
2023-04-16T08:09:28.246Z,11.90
2023-04-16T08:11:56.730Z,14.02
2023-04-16T08:14:25.014Z,14.52
2023-04-16T08:16:54.814Z,12.32
2023-04-16T08:19:23.099Z,9.67
2023-04-16T08:21:51.516Z,17.23
2023-04-16T08:24:19.799Z,14.40
2023-04-16T08:26:48.115Z,16.80
2023-04-16T08:29:16.385Z,11.85
2023-04-16T08:31:44.976Z,16.52
2023-04-16T08:34:14.756Z,13.70
2023-04-16T08:36:43.047Z,12.27
2023-04-16T08:39:11.564Z,15.85
2023-04-16T08:41:44.781Z,20.20
2023-04-16T08:44:21.101Z,14.80
2023-04-16T08:46:49.804Z,18.60
2023-04-16T08:49:19.562Z,11.43
2023-04-16T08:51:55.643Z,13.90
2023-04-16T08:54:36.292Z,11.27
2023-04-16T08:57:08.447Z,13.38
2023-04-16T08:59:38.158Z,17.10
2023-04-16T09:02:07.689Z,20.17
2023-04-16T09:04:39.743Z,17.42
2023-04-16T09:07:10.814Z,16.10
2023-04-16T09:09:40.249Z,17.08
2023-04-16T09:12:10.036Z,19.67
2023-04-16T09:14:41.855Z,22.15
2023-04-16T09:17:11.153Z,19.70
2023-04-16T09:19:40.955Z,16.42
2023-04-16T09:22:09.482Z,13.07
2023-04-16T09:24:38.451Z,13.77
2023-04-16T09:27:06.982Z,14.38
2023-04-16T09:29:36.961Z,13.50
2023-04-16T09:32:07.018Z,20.05
2023-04-16T09:34:36.820Z,12.75
2023-04-16T09:37:19.103Z,13.07
2023-04-16T09:39:55.944Z,10.55
2023-04-16T09:42:27.383Z,12.48
2023-04-16T09:44:59.476Z,15.75
2023-04-16T09:47:41.473Z,15.45
2023-04-16T09:50:12.907Z,14.57
2023-04-16T09:52:46.138Z,15.00
2023-04-16T09:55:14.781Z,15.48
2023-04-16T09:57:43.078Z,18.50
2023-04-16T10:00:13.237Z,13.98
2023-04-16T10:02:42.878Z,11.20
2023-04-16T10:05:16.765Z,12.13
2023-04-16T10:07:48.738Z,14.10
2023-04-16T10:10:17.426Z,13.27
2023-04-16T10:12:45.941Z,12.65
2023-04-16T10:15:14.302Z,12.82
2023-04-16T10:17:43.737Z,15.80
2023-04-16T10:20:13.024Z,18.67
2023-04-16T10:22:42.019Z,18.60
2023-04-16T10:25:12.418Z,17.92
2023-04-16T10:27:41.967Z,14.75
2023-04-16T10:30:12.690Z,15.45
2023-04-16T10:35:10.819Z,14.63
2023-04-16T10:37:39.311Z,13.45
2023-04-16T10:40:28.300Z,15.55
2023-04-16T10:42:58.241Z,14.10
2023-04-16T10:45:32.882Z,18.85
2023-04-16T10:48:06.155Z,14.25
2023-04-16T10:50:38.074Z,14.05
2023-04-16T10:53:25.019Z,14.15
2023-04-16T10:56:13.987Z,11.32
2023-04-16T10:58:42.950Z,9.70
2023-04-16T11:01:16.555Z,14.90
2023-04-16T11:03:48.132Z,16.67
2023-04-16T11:06:18.834Z,14.13
2023-04-16T11:08:54.638Z,10.57
2023-04-16T11:11:25.088Z,16.17
2023-04-16T11:13:57.836Z,17.07
2023-04-16T11:16:28.077Z,18.52
2023-04-16T11:18:57.099Z,20.05
2023-04-16T11:21:26.676Z,14.18
2023-04-16T11:23:55.220Z,15.82
2023-04-16T11:26:30.619Z,12.70
2023-04-16T11:29:00.215Z,13.95
2023-04-16T11:31:28.596Z,14.00
2023-04-16T11:34:00.965Z,11.55
2023-04-16T11:36:29.336Z,12.90
2023-04-16T11:39:04.527Z,10.13
2023-04-16T11:41:34.199Z,10.95
2023-04-16T11:44:18.243Z,14.52
2023-04-16T11:46:46.544Z,14.50
2023-04-16T11:49:15.535Z,14.30
2023-04-16T11:51:45.041Z,14.52
2023-04-16T11:54:21.368Z,16.83
2023-04-16T11:56:53.329Z,14.27
2023-04-16T11:59:23.939Z,13.32
2023-04-16T12:01:55.676Z,12.38
2023-04-16T12:04:27.103Z,17.42
2023-04-16T12:07:12.333Z,17.10
2023-04-16T12:09:42.495Z,15.63
2023-04-16T12:12:31.162Z,13.75
2023-04-16T12:15:03.174Z,10.30
2023-04-16T12:17:34.318Z,14.23
2023-04-16T12:20:06.050Z,16.25
2023-04-16T12:22:37.430Z,16.50
2023-04-16T12:25:09.055Z,11.95
2023-04-16T12:27:52.988Z,13.93
2023-04-16T12:30:24.510Z,14.88
2023-04-16T12:33:14.264Z,13.07
2023-04-16T12:35:45.027Z,14.50
2023-04-16T12:40:43.782Z,15.70
2023-04-16T12:43:13.715Z,15.90
2023-04-16T12:45:42.534Z,20.15
2023-04-16T12:48:10.950Z,18.10
2023-04-16T12:50:39.905Z,20.98
2023-04-16T12:53:08.262Z,15.90
2023-04-16T12:55:36.920Z,17.85
2023-04-16T12:58:05.323Z,19.95
2023-04-16T13:00:35.013Z,28.17
2023-04-16T13:03:03.515Z,17.02
2023-04-16T13:05:31.944Z,19.35
2023-04-16T13:08:00.395Z,23.45
2023-04-16T13:10:28.834Z,21.10
2023-04-16T13:12:57.158Z,21.58
2023-04-16T13:15:25.499Z,26.23
2023-04-16T13:17:55.255Z,21.77
2023-04-16T13:20:24.628Z,29.80
2023-04-16T13:22:53.008Z,25.77
2023-04-16T13:25:21.460Z,21.58
2023-04-16T13:27:49.757Z,21.73
2023-04-16T13:30:18.241Z,23.55
2023-04-16T13:32:46.867Z,22.80
2023-04-16T13:35:16.606Z,26.85
2023-04-16T13:37:44.955Z,24.67
2023-04-16T13:40:13.738Z,28.92
2023-04-16T13:42:42.332Z,24.50
2023-04-16T13:45:11.290Z,20.83
2023-04-16T13:47:41.652Z,22.58
2023-04-16T13:50:11.249Z,19.52
2023-04-16T13:52:41.208Z,23.20
2023-04-16T13:55:10.608Z,21.75
2023-04-16T13:57:38.958Z,25.55
2023-04-16T14:00:13.220Z,21.67
2023-04-16T14:02:42.650Z,20.67
2023-04-16T14:05:11.311Z,21.63
2023-04-16T14:07:41.159Z,23.92
2023-04-16T14:10:11.370Z,21.63
2023-04-16T14:12:40.016Z,18.58
2023-04-16T14:15:10.555Z,24.05
2023-04-16T14:17:38.946Z,19.75
2023-04-16T14:20:08.745Z,23.80
2023-04-16T14:22:37.151Z,19.92
2023-04-16T14:25:08.110Z,19.48
2023-04-16T14:27:36.551Z,18.50
2023-04-16T14:30:07.744Z,22.00
2023-04-16T14:32:36.255Z,22.98
2023-04-16T14:35:05.355Z,19.65
2023-04-16T14:37:35.837Z,20.63
2023-04-16T14:40:07.924Z,18.67
2023-04-16T14:42:38.213Z,21.50
2023-04-16T14:45:08.439Z,18.60
2023-04-16T14:47:45.555Z,19.95
2023-04-16T14:50:14.858Z,17.50
2023-04-16T14:52:43.254Z,21.05
2023-04-16T14:55:11.658Z,22.48
2023-04-16T14:57:41.633Z,20.92
2023-04-16T15:00:11.991Z,21.20
2023-04-16T15:02:40.471Z,19.33
2023-04-16T15:05:10.524Z,21.95
2023-04-16T15:07:39.113Z,21.00
2023-04-16T15:10:09.331Z,22.95
2023-04-16T15:12:39.978Z,18.45
2023-04-16T15:17:37.944Z,22.83
2023-04-16T15:20:09.157Z,21.38
2023-04-16T15:22:38.093Z,20.02
2023-04-16T15:25:07.644Z,20.48
2023-04-16T15:27:36.491Z,19.00
2023-04-16T15:30:07.515Z,24.75
2023-04-16T15:32:35.938Z,19.58
2023-04-16T15:35:04.889Z,19.63
2023-04-16T15:37:33.267Z,20.98
2023-04-16T15:40:01.864Z,19.67
2023-04-16T15:42:30.210Z,21.83
2023-04-16T15:44:58.509Z,23.40
2023-04-16T15:47:28.309Z,17.50
2023-04-16T15:49:56.775Z,18.67
2023-04-16T15:52:25.172Z,17.55
2023-04-16T15:54:53.450Z,18.67
2023-04-16T15:57:21.798Z,19.88
2023-04-16T16:00:03.511Z,22.27
2023-04-16T16:02:36.266Z,14.85
2023-04-16T16:05:05.442Z,16.60
2023-04-16T16:07:33.710Z,18.35
2023-04-16T16:10:02.048Z,22.08
2023-04-16T16:12:31.211Z,20.02
2023-04-16T16:14:59.798Z,21.65
2023-04-16T16:17:28.234Z,16.45
2023-04-16T16:19:59.266Z,16.50
2023-04-16T16:22:27.708Z,18.50
2023-04-16T16:24:57.656Z,15.85
2023-04-16T16:27:26.032Z,20.05
2023-04-16T16:29:54.375Z,20.73
2023-04-16T16:32:22.729Z,21.30
2023-04-16T16:34:51.037Z,21.85
2023-04-16T16:37:20.745Z,19.15
2023-04-16T16:39:49.017Z,22.70
2023-04-16T16:42:18.898Z,21.55
2023-04-16T16:44:48.893Z,20.85
2023-04-16T16:47:18.004Z,21.65
2023-04-16T16:49:46.656Z,22.27
2023-04-16T16:52:14.940Z,21.38
2023-04-16T16:54:44.584Z,23.30
2023-04-16T16:57:15.333Z,22.38
2023-04-16T17:02:11.803Z,24.30
2023-04-16T17:04:40.317Z,24.77
2023-04-16T17:07:08.691Z,25.30
2023-04-16T17:09:38.560Z,25.63
2023-04-16T17:12:08.567Z,21.88
2023-04-16T17:14:36.929Z,26.70
2023-04-16T17:17:05.404Z,26.08
2023-04-16T17:19:33.712Z,25.83
2023-04-16T17:22:01.994Z,26.75
2023-04-16T17:24:30.387Z,25.90
2023-04-16T17:26:58.961Z,25.02
2023-04-16T17:29:28.758Z,25.80
2023-04-16T17:31:57.129Z,25.73
2023-04-16T17:34:25.530Z,29.42
2023-04-16T17:36:53.960Z,24.55
2023-04-16T17:39:22.310Z,20.58
2023-04-16T17:41:54.230Z,24.90
2023-04-16T17:44:25.554Z,24.05
2023-04-16T17:46:55.283Z,27.52
2023-04-16T17:49:23.760Z,23.37
2023-04-16T17:51:52.180Z,24.60
2023-04-16T17:54:20.598Z,26.52
2023-04-16T17:56:48.935Z,27.48
2023-04-16T17:59:17.232Z,32.58
2023-04-16T18:01:45.740Z,29.90
2023-04-16T18:04:15.994Z,26.30
2023-04-16T18:06:44.702Z,31.00
2023-04-16T18:09:14.397Z,34.53
2023-04-16T18:11:42.766Z,29.97
2023-04-16T18:14:13.488Z,29.63
2023-04-16T18:16:41.972Z,26.77
2023-04-16T18:19:10.280Z,31.58
2023-04-16T18:21:40.034Z,32.35
2023-04-16T18:24:10.038Z,30.53
2023-04-16T18:26:41.078Z,31.95
2023-04-16T18:29:09.789Z,38.20
2023-04-16T18:31:38.676Z,30.33
2023-04-16T18:34:07.201Z,38.55
2023-04-16T18:36:35.655Z,35.90
2023-04-16T18:39:05.925Z,32.90
2023-04-16T18:41:34.375Z,31.15
2023-04-16T18:44:02.785Z,37.95
2023-04-16T18:46:31.152Z,31.67
2023-04-16T18:48:59.984Z,31.70
2023-04-16T18:51:28.589Z,30.25
2023-04-16T18:53:57.063Z,36.30
2023-04-16T18:56:26.864Z,36.72
2023-04-16T18:58:55.263Z,32.93
2023-04-16T19:01:24.569Z,39.92
2023-04-16T19:03:53.139Z,37.38
2023-04-16T19:06:21.461Z,40.53
2023-04-16T19:08:49.691Z,33.17
2023-04-16T19:11:18.063Z,31.63
2023-04-16T19:13:47.792Z,35.33
2023-04-16T19:16:16.960Z,35.27
2023-04-16T19:18:45.585Z,32.63
2023-04-16T19:21:13.942Z,30.83
2023-04-16T19:23:42.656Z,37.63
2023-04-16T19:26:10.994Z,34.88
2023-04-16T19:28:39.674Z,35.53
2023-04-16T19:31:09.936Z,31.52
2023-04-16T19:33:38.472Z,32.58
2023-04-16T19:36:07.420Z,31.35
2023-04-16T19:38:35.790Z,40.30
2023-04-16T19:41:04.151Z,34.47
2023-04-16T19:43:32.479Z,33.03
2023-04-16T19:46:00.872Z,30.38
2023-04-16T19:48:31.786Z,35.88
2023-04-16T19:51:04.274Z,33.58
2023-04-16T19:53:34.091Z,32.90
2023-04-16T19:56:02.472Z,38.80
2023-04-16T19:58:30.786Z,40.25
2023-04-16T20:00:59.220Z,35.05
2023-04-16T20:03:27.675Z,39.22
2023-04-16T20:05:57.409Z,40.03
2023-04-16T20:08:25.958Z,36.17
2023-04-16T20:10:54.980Z,33.75
2023-04-16T20:13:23.400Z,38.85
2023-04-16T20:15:53.898Z,39.05
2023-04-16T20:18:22.358Z,36.17
2023-04-16T20:20:50.769Z,38.83
2023-04-16T20:23:20.527Z,33.75
2023-04-16T20:25:49.124Z,38.93
2023-04-16T20:28:21.339Z,38.45
2023-04-16T20:30:50.907Z,38.33
2023-04-16T20:33:19.478Z,40.70
2023-04-16T20:35:50.841Z,42.17
2023-04-16T20:38:23.939Z,37.67
2023-04-16T20:40:58.083Z,38.65
2023-04-16T20:43:29.538Z,37.65
2023-04-16T20:45:58.021Z,39.50
2023-04-16T20:48:26.481Z,40.20
2023-04-16T20:51:00.074Z,40.83
2023-04-16T20:53:30.246Z,43.28
2023-04-16T20:55:59.970Z,40.67
2023-04-16T20:58:28.351Z,36.65
2023-04-16T21:00:58.697Z,41.47
2023-04-16T21:03:27.138Z,40.47
2023-04-16T21:05:56.801Z,36.55
2023-04-16T21:08:25.784Z,42.15
2023-04-16T21:10:55.548Z,36.65
2023-04-16T21:13:23.918Z,37.13
2023-04-16T21:15:52.694Z,36.78
2023-04-16T21:18:21.146Z,37.15
2023-04-16T21:20:49.495Z,39.88
2023-04-16T21:23:17.915Z,36.97
2023-04-16T21:25:46.240Z,40.55
2023-04-16T21:28:15.988Z,42.78
2023-04-16T21:30:44.399Z,41.33
2023-04-16T21:33:13.007Z,38.85
2023-04-16T21:35:41.423Z,42.55
2023-04-16T21:38:09.691Z,36.35
2023-04-16T21:40:38.124Z,40.40
2023-04-16T21:43:06.490Z,38.58
2023-04-16T21:45:36.277Z,44.55
2023-04-16T21:48:04.849Z,45.00
2023-04-16T21:50:33.305Z,41.88
2023-04-16T21:53:04.462Z,44.50
2023-04-16T21:55:33.005Z,45.45
2023-04-16T21:58:01.370Z,42.95
2023-04-16T22:00:30.046Z,43.88
2023-04-16T22:03:00.038Z,43.95
2023-04-16T22:05:29.014Z,45.80
2023-04-16T22:07:57.333Z,48.17
2023-04-16T22:10:25.747Z,43.10
2023-04-16T22:12:54.890Z,39.55
2023-04-16T22:15:23.309Z,43.05
2023-04-16T22:17:51.764Z,50.03
2023-04-16T22:20:22.268Z,45.10
2023-04-16T22:22:52.740Z,39.03
2023-04-16T22:25:21.105Z,44.17
2023-04-16T22:27:49.452Z,45.45
2023-04-16T22:30:17.877Z,49.72
2023-04-16T22:32:46.392Z,43.33
2023-04-16T22:35:15.499Z,48.20
2023-04-16T22:37:45.528Z,42.92
2023-04-16T22:40:14.955Z,44.38
2023-04-16T22:42:43.413Z,43.88
2023-04-16T22:45:12.908Z,49.97
2023-04-16T22:47:41.649Z,52.75
2023-04-16T22:50:10.997Z,50.97
2023-04-16T22:52:39.324Z,46.60
2023-04-16T22:55:10.322Z,48.63
2023-04-16T22:57:38.758Z,52.17
2023-04-16T23:00:11.306Z,53.90
2023-04-16T23:02:39.752Z,59.08
2023-04-16T23:05:09.154Z,59.15
2023-04-16T23:07:37.496Z,55.80
2023-04-16T23:10:08.934Z,58.97
2023-04-16T23:12:38.102Z,63.08
2023-04-16T23:15:07.870Z,62.03
2023-04-16T23:17:36.323Z,62.38
2023-04-16T23:20:07.646Z,61.10
2023-04-16T23:22:36.011Z,65.20
2023-04-16T23:25:04.427Z,72.30
2023-04-16T23:27:34.183Z,62.85
2023-04-16T23:30:02.625Z,60.03
2023-04-16T23:32:31.036Z,56.17
2023-04-16T23:34:59.452Z,57.53
2023-04-16T23:37:27.950Z,62.13
2023-04-16T23:39:56.568Z,62.30
2023-04-16T23:42:24.922Z,62.03
2023-04-16T23:44:54.593Z,61.33
2023-04-16T23:47:23.546Z,60.95
2023-04-16T23:49:51.855Z,63.90
2023-04-16T23:52:20.629Z,60.17
2023-04-16T23:54:49.214Z,62.80
2023-04-16T23:57:17.486Z,62.15
2023-04-16T23:59:45.869Z,60.10
